Terminal Aerodrome Forecast
Issued by NWS Sioux Falls, SD

Home | Current Version | Previous Version | Graphics & Text | Print | Product List | Glossary On
Versions: 1 2 3 4 5 6 7 8 9 10 11 12 13 14 15 16 17 18 19 20 21 22 23 24 25 26
000
FTUS43 KFSD 252000 AAB
TAFFSD
TAF AMD
KFSD 252054Z 2521/2618 27004KT P6SM BKN035
     FM252200 34008KT P6SM BKN035
     FM260200 VRB04KT P6SM SKC
     FM261000 VRB03KT P6SM BKN120=

USA.gov is the U.S. government's official web portal to all federal, state and local government web resources and services.